createdAt,value
2024-02-29T00:00:08.622Z,19.49
2024-02-29T00:02:58.265Z,19.47
2024-02-29T00:05:26.713Z,19.49
2024-02-29T00:07:56.413Z,19.49
2024-02-29T00:10:24.807Z,19.49
2024-02-29T00:12:54.399Z,19.49
2024-02-29T00:15:22.674Z,19.49
2024-02-29T00:17:52.454Z,19.48
2024-02-29T00:20:20.845Z,19.48
2024-02-29T00:22:51.462Z,19.48
2024-02-29T00:25:19.828Z,19.47
2024-02-29T00:27:49.721Z,19.47
2024-02-29T00:30:18.310Z,19.47
2024-02-29T00:32:48.022Z,19.47
2024-02-29T00:35:16.548Z,19.46
2024-02-29T00:37:46.213Z,19.46
2024-02-29T00:40:14.671Z,19.45
2024-02-29T00:42:44.381Z,19.45
2024-02-29T00:45:12.810Z,19.44
2024-02-29T00:47:43.438Z,19.45
2024-02-29T00:50:11.813Z,19.45
2024-02-29T00:52:41.375Z,19.44
2024-02-29T00:55:09.825Z,19.44
2024-02-29T00:57:39.906Z,19.44
2024-02-29T01:00:09.754Z,19.44
2024-02-29T01:02:39.327Z,19.44
2024-02-29T01:05:08.266Z,19.43
2024-02-29T01:07:37.905Z,19.43
2024-02-29T01:10:08.505Z,19.43
2024-02-29T01:12:39.532Z,19.43
2024-02-29T01:15:10.096Z,19.43
2024-02-29T01:17:41.835Z,19.42
2024-02-29T01:20:10.731Z,19.42
2024-02-29T01:22:40.406Z,19.42
2024-02-29T01:25:09.550Z,19.42
2024-02-29T01:27:39.394Z,19.42
2024-02-29T01:30:08.417Z,19.42
2024-02-29T01:32:38.313Z,19.42
2024-02-29T01:35:08.642Z,19.42
2024-02-29T01:37:38.268Z,19.43
2024-02-29T01:40:07.669Z,19.42
2024-02-29T01:42:42.451Z,19.43
2024-02-29T01:45:13.546Z,19.43
2024-02-29T01:47:43.588Z,19.43
2024-02-29T01:50:16.662Z,19.43
2024-02-29T01:52:46.616Z,19.43
2024-02-29T01:55:16.475Z,19.43
2024-02-29T01:57:45.188Z,19.44
2024-02-29T02:00:15.657Z,19.44
2024-02-29T02:02:45.217Z,19.45
2024-02-29T02:05:15.164Z,19.45
2024-02-29T02:07:43.486Z,19.46
2024-02-29T02:10:14.274Z,19.45
2024-02-29T02:12:42.596Z,19.46
2024-02-29T02:15:13.218Z,19.45
2024-02-29T02:17:43.322Z,19.45
2024-02-29T02:20:17.723Z,19.45
2024-02-29T02:22:48.243Z,19.46
2024-02-29T02:25:17.452Z,19.45
2024-02-29T02:27:47.150Z,19.47
2024-02-29T02:30:15.470Z,19.47
2024-02-29T02:32:46.054Z,19.47
2024-02-29T02:35:14.399Z,19.47
2024-02-29T02:37:44.998Z,19.47
2024-02-29T02:40:13.750Z,19.48
2024-02-29T02:42:43.360Z,19.48
2024-02-29T02:45:11.693Z,19.47
2024-02-29T02:47:42.363Z,19.47
2024-02-29T02:50:10.650Z,19.48
2024-02-29T02:52:40.573Z,19.47
2024-02-29T02:55:09.227Z,19.47
2024-02-29T02:57:38.970Z,19.47
2024-02-29T03:00:08.053Z,19.47
2024-02-29T03:02:38.576Z,19.47
2024-02-29T03:05:07.789Z,19.47
2024-02-29T03:07:37.558Z,19.46
2024-02-29T03:10:08.082Z,19.45
2024-02-29T03:12:38.476Z,19.45
2024-02-29T03:15:07.792Z,19.44
2024-02-29T03:17:37.680Z,19.45
2024-02-29T03:20:06.937Z,19.44
2024-02-29T03:22:36.513Z,19.44
2024-02-29T03:25:05.272Z,19.44
2024-02-29T03:27:34.943Z,19.44
2024-02-29T03:30:03.562Z,19.45
2024-02-29T03:32:33.157Z,19.44
2024-02-29T03:35:01.604Z,19.44
2024-02-29T03:37:31.142Z,19.44
2024-02-29T03:39:59.420Z,19.43
2024-02-29T03:42:29.985Z,19.43
2024-02-29T03:44:58.465Z,19.43
2024-02-29T03:47:28.271Z,19.42
2024-02-29T03:49:56.532Z,19.42
2024-02-29T03:52:27.160Z,19.42
2024-02-29T03:54:55.465Z,19.42
2024-02-29T03:57:25.109Z,19.40
2024-02-29T03:59:53.351Z,19.40
2024-02-29T04:02:23.963Z,19.39
2024-02-29T04:04:52.296Z,19.38
2024-02-29T04:07:21.884Z,19.37
2024-02-29T04:09:50.142Z,19.37
2024-02-29T04:12:20.716Z,19.37
2024-02-29T04:14:48.974Z,19.35
2024-02-29T04:17:19.532Z,19.34
2024-02-29T04:19:47.963Z,19.33
2024-02-29T04:22:18.556Z,19.33
2024-02-29T04:24:47.150Z,19.32
2024-02-29T04:27:16.773Z,19.32
2024-02-29T04:29:48.045Z,19.31
2024-02-29T04:32:17.642Z,19.31
2024-02-29T04:34:46.625Z,19.30
2024-02-29T04:37:16.245Z,19.29
2024-02-29T04:39:44.585Z,19.29
2024-02-29T04:42:13.382Z,19.28
2024-02-29T04:44:41.721Z,19.28
2024-02-29T04:47:11.319Z,19.27
2024-02-29T04:49:39.591Z,19.26
2024-02-29T04:52:10.177Z,19.26
2024-02-29T04:54:38.734Z,19.25
2024-02-29T04:57:08.311Z,19.24
2024-02-29T04:59:36.588Z,19.23
2024-02-29T05:02:07.754Z,19.23
2024-02-29T05:04:37.255Z,19.22
2024-02-29T05:07:06.820Z,19.21
2024-02-29T05:09:35.392Z,19.21
2024-02-29T05:12:05.265Z,19.20
2024-02-29T05:14:33.520Z,19.19
2024-02-29T05:17:03.206Z,19.19
2024-02-29T05:19:31.538Z,19.18
2024-02-29T05:22:01.159Z,19.18
2024-02-29T05:24:29.465Z,19.18
2024-02-29T05:26:59.970Z,19.17
2024-02-29T05:29:28.304Z,19.18
2024-02-29T05:31:58.724Z,19.17
2024-02-29T05:34:27.271Z,19.17
2024-02-29T05:36:56.813Z,19.16
2024-02-29T05:39:25.226Z,19.16
2024-02-29T05:41:55.003Z,19.15
2024-02-29T05:44:23.439Z,19.14
2024-02-29T05:46:53.025Z,19.14
2024-02-29T05:49:21.373Z,19.14
2024-02-29T05:51:51.953Z,19.14
2024-02-29T05:54:20.317Z,19.12
2024-02-29T05:56:50.081Z,19.12
2024-02-29T05:59:18.465Z,19.11
2024-02-29T06:01:49.270Z,19.11
2024-02-29T06:04:17.727Z,19.11
2024-02-29T06:06:47.368Z,19.11
2024-02-29T06:09:15.699Z,19.11
2024-02-29T06:11:45.530Z,19.11
2024-02-29T06:14:14.898Z,19.11
2024-02-29T06:16:44.499Z,19.11
2024-02-29T06:19:12.925Z,19.11
2024-02-29T06:21:42.577Z,19.11
2024-02-29T06:24:11.017Z,19.11
2024-02-29T06:26:40.642Z,19.11
2024-02-29T06:29:08.852Z,19.12
2024-02-29T06:31:42.032Z,19.12
2024-02-29T06:34:10.452Z,19.12
2024-02-29T06:36:40.147Z,19.13
2024-02-29T06:39:08.708Z,19.13
2024-02-29T06:41:43.493Z,19.13
2024-02-29T06:44:11.837Z,19.13
2024-02-29T06:46:41.377Z,19.13
2024-02-29T06:49:09.637Z,19.13
2024-02-29T06:51:40.191Z,19.12
2024-02-29T06:54:08.499Z,19.12
2024-02-29T06:56:38.142Z,19.12
2024-02-29T06:59:06.481Z,19.12
2024-02-29T07:01:37.050Z,19.12
2024-02-29T07:04:05.547Z,19.12
2024-02-29T07:06:35.398Z,19.12
2024-02-29T07:09:03.924Z,19.12
2024-02-29T07:11:33.502Z,19.12
2024-02-29T07:14:01.901Z,19.11
2024-02-29T07:16:32.483Z,19.10
2024-02-29T07:19:00.957Z,19.10
2024-02-29T07:21:31.526Z,19.10
2024-02-29T07:23:59.837Z,19.09
2024-02-29T07:26:29.754Z,19.08
2024-02-29T07:28:58.045Z,19.08
2024-02-29T07:31:27.713Z,19.08
2024-02-29T07:33:56.070Z,19.07
2024-02-29T07:36:27.052Z,19.08
2024-02-29T07:38:55.402Z,19.07
2024-02-29T07:41:25.391Z,19.08
2024-02-29T07:43:53.815Z,19.08
2024-02-29T07:46:23.378Z,19.08
2024-02-29T07:48:51.755Z,19.08
2024-02-29T07:51:22.326Z,19.09
2024-02-29T07:53:50.579Z,19.10
2024-02-29T07:56:21.154Z,19.10
2024-02-29T07:58:49.620Z,19.12
2024-02-29T08:01:19.224Z,19.13
2024-02-29T08:03:47.762Z,19.13
2024-02-29T08:06:17.495Z,19.13
2024-02-29T08:08:45.713Z,19.14
2024-02-29T08:11:16.326Z,19.15
2024-02-29T08:13:44.599Z,19.16
2024-02-29T08:16:15.321Z,19.15
2024-02-29T08:18:43.749Z,19.16
2024-02-29T08:21:13.320Z,19.17
2024-02-29T08:23:41.577Z,19.16
2024-02-29T08:26:12.218Z,19.17
2024-02-29T08:28:40.613Z,19.18
2024-02-29T08:31:10.288Z,19.18
2024-02-29T08:33:38.631Z,19.19
2024-02-29T08:36:08.545Z,19.19
2024-02-29T08:38:36.868Z,19.19
2024-02-29T08:41:07.407Z,19.20
2024-02-29T08:43:35.800Z,19.21
2024-02-29T08:46:05.454Z,19.22
2024-02-29T08:48:33.788Z,19.22
2024-02-29T08:51:05.097Z,19.23
2024-02-29T08:53:33.381Z,19.24
2024-02-29T08:56:04.379Z,19.24
2024-02-29T08:58:32.779Z,19.25
2024-02-29T09:01:02.580Z,19.26
2024-02-29T09:03:31.036Z,19.27
2024-02-29T09:06:00.997Z,19.29
2024-02-29T09:08:29.324Z,19.30
2024-02-29T09:10:59.897Z,19.31
2024-02-29T09:13:34.774Z,19.32
2024-02-29T09:16:05.893Z,19.34
2024-02-29T09:18:34.346Z,19.35
2024-02-29T09:21:04.256Z,19.35
2024-02-29T09:23:32.536Z,19.36
2024-02-29T09:26:03.247Z,19.36
2024-02-29T09:28:31.570Z,19.36
2024-02-29T09:31:02.122Z,19.36
2024-02-29T09:33:30.396Z,19.36
2024-02-29T09:36:07.937Z,19.36
2024-02-29T09:38:38.607Z,19.36
2024-02-29T09:41:18.964Z,19.36
2024-02-29T09:43:59.755Z,19.36
2024-02-29T09:46:28.637Z,19.35
2024-02-29T09:48:57.576Z,19.35
2024-02-29T09:51:26.163Z,19.35
2024-02-29T09:53:56.444Z,19.36
2024-02-29T09:56:28.757Z,19.36
2024-02-29T09:58:58.940Z,19.37
2024-02-29T10:01:27.854Z,19.37
2024-02-29T10:03:58.602Z,19.37
2024-02-29T10:06:26.950Z,19.39
2024-02-29T10:08:56.538Z,19.40
2024-02-29T10:11:29.032Z,19.42
2024-02-29T10:13:58.656Z,19.43
2024-02-29T10:16:28.768Z,19.44
2024-02-29T10:18:58.719Z,19.45
2024-02-29T10:21:27.045Z,19.46
2024-02-29T10:23:57.325Z,19.47
2024-02-29T10:26:25.596Z,19.47
2024-02-29T10:29:04.957Z,19.48
2024-02-29T10:31:34.532Z,19.49
2024-02-29T10:34:03.585Z,19.50
2024-02-29T10:36:32.913Z,19.50
2024-02-29T10:39:01.335Z,19.50
2024-02-29T10:41:33.258Z,19.51
2024-02-29T10:44:03.993Z,19.51
2024-02-29T10:46:36.729Z,19.51
2024-02-29T10:49:24.595Z,19.51
2024-02-29T10:52:09.603Z,19.51
2024-02-29T10:55:07.786Z,19.50
2024-02-29T10:58:19.119Z,19.51
2024-02-29T11:00:49.889Z,19.51
2024-02-29T11:03:19.460Z,19.51
2024-02-29T11:05:50.566Z,19.51
2024-02-29T11:08:19.327Z,19.51
2024-02-29T11:10:49.047Z,19.50
2024-02-29T11:13:20.593Z,19.50
2024-02-29T11:15:51.104Z,19.51
2024-02-29T11:18:26.566Z,19.51
2024-02-29T11:21:04.313Z,19.50
2024-02-29T11:23:39.976Z,19.50
2024-02-29T11:26:10.683Z,19.50
2024-02-29T11:28:41.651Z,19.51
2024-02-29T11:31:18.296Z,19.50
2024-02-29T11:33:48.994Z,19.50
2024-02-29T11:36:17.372Z,19.51
2024-02-29T11:38:47.704Z,19.51
2024-02-29T11:41:20.900Z,19.51
2024-02-29T11:43:50.794Z,19.51
2024-02-29T11:46:19.294Z,19.51
2024-02-29T11:48:49.028Z,19.51
2024-02-29T11:51:17.350Z,19.52
2024-02-29T11:53:47.179Z,19.53
2024-02-29T11:56:16.830Z,19.54
2024-02-29T11:58:48.412Z,19.55
2024-02-29T12:01:16.839Z,19.56
2024-02-29T12:03:47.133Z,19.56
2024-02-29T12:06:15.598Z,19.57
2024-02-29T12:08:45.269Z,19.57
2024-02-29T12:11:14.559Z,19.57
2024-02-29T12:13:44.704Z,19.57
2024-02-29T12:16:14.483Z,19.57
2024-02-29T12:18:45.661Z,19.57
2024-02-29T12:21:14.260Z,19.57
2024-02-29T12:23:44.051Z,19.57
2024-02-29T12:26:15.674Z,19.56
2024-02-29T12:28:48.570Z,19.56
2024-02-29T12:31:17.598Z,19.56
2024-02-29T12:33:49.195Z,19.56
2024-02-29T12:36:17.885Z,19.56
2024-02-29T12:38:48.402Z,19.55
2024-02-29T12:41:17.022Z,19.54
2024-02-29T12:43:48.914Z,19.53
2024-02-29T12:46:18.317Z,19.54
2024-02-29T12:48:47.892Z,19.53
2024-02-29T12:51:16.543Z,19.53
2024-02-29T12:53:47.246Z,19.53
2024-02-29T12:56:15.627Z,19.54
2024-02-29T12:58:45.211Z,19.54
2024-02-29T13:01:13.567Z,19.54
2024-02-29T13:03:43.607Z,19.55
2024-02-29T13:06:12.446Z,19.55
2024-02-29T13:08:42.160Z,19.55
2024-02-29T13:11:10.440Z,19.56
2024-02-29T13:13:41.038Z,19.57
2024-02-29T13:16:09.401Z,19.58
2024-02-29T13:18:39.038Z,19.58
2024-02-29T13:21:07.328Z,19.59
2024-02-29T13:23:37.903Z,19.60
2024-02-29T13:26:06.590Z,19.62
2024-02-29T13:28:36.374Z,19.63
2024-02-29T13:31:04.962Z,19.65
2024-02-29T13:33:34.532Z,19.67
2024-02-29T13:36:02.924Z,19.68
2024-02-29T13:38:32.982Z,19.70
2024-02-29T13:41:01.221Z,19.71
2024-02-29T13:43:31.976Z,19.72
2024-02-29T13:46:00.330Z,19.73
2024-02-29T13:48:29.989Z,19.73
2024-02-29T13:50:58.363Z,19.74
2024-02-29T13:53:28.922Z,19.74
2024-02-29T13:55:57.253Z,19.74
2024-02-29T13:58:26.865Z,19.73
2024-02-29T14:00:55.223Z,19.72
2024-02-29T14:03:24.862Z,19.72
2024-02-29T14:05:53.284Z,19.72
2024-02-29T14:08:22.965Z,19.71
2024-02-29T14:10:51.239Z,19.71
2024-02-29T14:13:21.813Z,19.71
2024-02-29T14:15:50.219Z,19.70
2024-02-29T14:18:19.814Z,19.70
2024-02-29T14:20:48.131Z,19.69
2024-02-29T14:23:19.183Z,19.68
2024-02-29T14:25:47.644Z,19.68
2024-02-29T14:28:17.239Z,19.67
2024-02-29T14:30:45.599Z,19.66
2024-02-29T14:33:15.191Z,19.65
2024-02-29T14:35:43.495Z,19.65
2024-02-29T14:38:14.600Z,19.64
2024-02-29T14:40:42.845Z,19.64
2024-02-29T14:43:13.558Z,19.64
2024-02-29T14:45:41.955Z,19.63
2024-02-29T14:48:11.616Z,19.63
2024-02-29T14:50:40.257Z,19.62
2024-02-29T14:53:09.951Z,19.62
2024-02-29T14:55:38.225Z,19.62
2024-02-29T14:58:09.022Z,19.61
2024-02-29T15:00:37.396Z,19.61
2024-02-29T15:03:06.944Z,19.61
2024-02-29T15:05:35.506Z,19.61
2024-02-29T15:08:05.545Z,19.60
2024-02-29T15:10:33.838Z,19.59
2024-02-29T15:13:03.496Z,19.57
2024-02-29T15:15:31.808Z,19.55
2024-02-29T15:18:01.779Z,19.54
2024-02-29T15:20:30.227Z,19.52
2024-02-29T15:23:00.794Z,19.51
2024-02-29T15:25:29.297Z,19.50
2024-02-29T15:27:59.144Z,19.48
2024-02-29T15:30:27.584Z,19.47
2024-02-29T15:32:57.243Z,19.46
2024-02-29T15:35:25.529Z,19.45
2024-02-29T15:37:56.317Z,19.45
2024-02-29T15:40:25.041Z,19.44
2024-02-29T15:42:54.729Z,19.43
2024-02-29T15:45:22.956Z,19.43
2024-02-29T15:47:53.693Z,19.43
2024-02-29T15:50:22.019Z,19.44
2024-02-29T15:52:52.662Z,19.44
2024-02-29T15:55:22.401Z,19.44
2024-02-29T15:57:52.077Z,19.44
2024-02-29T16:00:22.318Z,19.43
2024-02-29T16:02:52.377Z,19.43
2024-02-29T16:05:21.019Z,19.44
2024-02-29T16:07:54.096Z,19.43
2024-02-29T16:10:26.200Z,19.42
2024-02-29T16:12:54.867Z,19.43
2024-02-29T16:15:25.758Z,19.43
2024-02-29T16:17:57.723Z,19.42
2024-02-29T16:20:27.348Z,19.42
2024-02-29T16:22:55.613Z,19.41
2024-02-29T16:25:25.510Z,19.40
2024-02-29T16:27:53.833Z,19.39
2024-02-29T16:30:24.413Z,19.38
2024-02-29T16:32:52.628Z,19.37
2024-02-29T16:35:23.244Z,19.36
2024-02-29T16:37:52.211Z,19.34
2024-02-29T16:40:21.804Z,19.33
2024-02-29T16:42:50.228Z,19.32
2024-02-29T16:45:20.826Z,19.31
2024-02-29T16:47:49.202Z,19.31
2024-02-29T16:50:19.148Z,19.30
2024-02-29T16:52:47.760Z,19.29
2024-02-29T16:55:18.952Z,19.29
2024-02-29T16:57:47.722Z,19.28
2024-02-29T17:00:17.389Z,19.26
2024-02-29T17:02:45.656Z,19.26
2024-02-29T17:05:16.477Z,19.26
2024-02-29T17:07:44.744Z,19.26
2024-02-29T17:10:15.350Z,19.26
2024-02-29T17:12:43.671Z,19.25
2024-02-29T17:15:13.376Z,19.25
2024-02-29T17:17:42.165Z,19.25
2024-02-29T17:20:11.947Z,19.25
2024-02-29T17:22:40.227Z,19.24
2024-02-29T17:25:10.065Z,19.24
2024-02-29T17:27:38.377Z,19.24
2024-02-29T17:30:09.992Z,19.23
2024-02-29T17:32:39.643Z,19.23
2024-02-29T17:35:09.875Z,19.23
2024-02-29T17:37:38.254Z,19.23
2024-02-29T17:40:08.228Z,19.23
2024-02-29T17:42:36.536Z,19.23
2024-02-29T17:45:06.770Z,19.23
2024-02-29T17:47:35.049Z,19.24
2024-02-29T17:50:06.251Z,19.24
2024-02-29T17:52:34.547Z,19.24
2024-02-29T17:55:04.853Z,19.24
2024-02-29T17:57:33.166Z,19.24
2024-02-29T18:00:05.218Z,19.24
2024-02-29T18:02:34.972Z,19.24
2024-02-29T18:05:05.471Z,19.25
2024-02-29T18:07:36.077Z,19.24
2024-02-29T18:10:08.344Z,19.25
2024-02-29T18:12:36.573Z,19.25
2024-02-29T18:15:07.432Z,19.25
2024-02-29T18:17:35.717Z,19.25
2024-02-29T18:20:07.517Z,19.26
2024-02-29T18:22:35.871Z,19.26
2024-02-29T18:25:06.090Z,19.26
2024-02-29T18:27:34.431Z,19.26
2024-02-29T18:30:06.999Z,19.26
2024-02-29T18:32:35.421Z,19.26
2024-02-29T18:35:05.440Z,19.27
2024-02-29T18:37:33.684Z,19.26
2024-02-29T18:40:04.973Z,19.27
2024-02-29T18:42:33.264Z,19.27
2024-02-29T18:45:04.315Z,19.27
2024-02-29T18:47:33.938Z,19.28
2024-02-29T18:50:05.764Z,19.27
2024-02-29T18:52:34.942Z,19.28
2024-02-29T18:55:05.866Z,19.27
2024-02-29T18:57:37.386Z,19.27
2024-02-29T19:00:07.770Z,19.27
2024-02-29T19:02:35.998Z,19.27
2024-02-29T19:05:06.099Z,19.27
2024-02-29T19:07:34.675Z,19.27
2024-02-29T19:10:04.907Z,19.27
2024-02-29T19:12:33.290Z,19.27
2024-02-29T19:15:04.495Z,19.27
2024-02-29T19:17:32.806Z,19.27
2024-02-29T19:20:04.401Z,19.26
2024-02-29T19:22:35.797Z,19.26
2024-02-29T19:25:06.268Z,19.26
2024-02-29T19:27:34.553Z,19.26
2024-02-29T19:30:06.172Z,19.26
2024-02-29T19:32:34.750Z,19.25
2024-02-29T19:35:04.870Z,19.25
2024-02-29T19:37:33.260Z,19.25
2024-02-29T19:40:03.282Z,19.25
2024-02-29T19:42:31.566Z,19.25
2024-02-29T19:45:02.066Z,19.25
2024-02-29T19:47:30.405Z,19.25
2024-02-29T19:49:59.994Z,19.24
2024-02-29T19:52:28.742Z,19.24
2024-02-29T19:54:58.604Z,19.25
2024-02-29T19:57:28.542Z,19.24
2024-02-29T19:59:58.166Z,19.24
2024-02-29T20:02:26.477Z,19.24
2024-02-29T20:04:57.040Z,19.24
2024-02-29T20:07:25.393Z,19.23
2024-02-29T20:09:55.063Z,19.24
2024-02-29T20:12:23.396Z,19.23
2024-02-29T20:14:53.087Z,19.24
2024-02-29T20:17:21.699Z,19.22
2024-02-29T20:19:51.291Z,19.22
2024-02-29T20:22:19.679Z,19.22
2024-02-29T20:24:49.377Z,19.21
2024-02-29T20:27:17.634Z,19.21
2024-02-29T20:29:48.586Z,19.21
2024-02-29T20:32:16.785Z,19.21
2024-02-29T20:34:48.130Z,19.21
2024-02-29T20:37:16.894Z,19.21
2024-02-29T20:39:46.707Z,19.21
2024-02-29T20:42:14.965Z,19.21
2024-02-29T20:44:45.499Z,19.20
2024-02-29T20:47:13.823Z,19.20
2024-02-29T20:49:43.487Z,19.21
2024-02-29T20:52:14.326Z,19.21
2024-02-29T20:54:45.818Z,19.21
2024-02-29T20:57:14.068Z,19.22
2024-02-29T20:59:44.637Z,19.21
2024-02-29T21:02:12.906Z,19.22
2024-02-29T21:04:43.617Z,19.23
2024-02-29T21:07:11.990Z,19.23
2024-02-29T21:09:41.782Z,19.24
2024-02-29T21:12:10.068Z,19.24
2024-02-29T21:14:40.695Z,19.25
2024-02-29T21:17:08.941Z,19.25
2024-02-29T21:19:39.546Z,19.25
2024-02-29T21:22:07.905Z,19.27
2024-02-29T21:24:37.553Z,19.27
2024-02-29T21:27:08.452Z,19.26
2024-02-29T21:29:38.963Z,19.27
2024-02-29T21:32:08.142Z,19.27
2024-02-29T21:34:37.902Z,19.28
2024-02-29T21:37:06.240Z,19.28
2024-02-29T21:39:44.098Z,19.28
2024-02-29T21:42:14.913Z,19.27
2024-02-29T21:44:43.359Z,19.28
2024-02-29T21:47:13.950Z,19.28
2024-02-29T21:49:42.204Z,19.28
2024-02-29T21:52:12.916Z,19.28
2024-02-29T21:54:41.319Z,19.28
2024-02-29T21:57:13.183Z,19.29
2024-02-29T21:59:41.552Z,19.29
2024-02-29T22:02:11.278Z,19.29
2024-02-29T22:04:40.101Z,19.30
2024-02-29T22:07:10.738Z,19.30
2024-02-29T22:09:39.073Z,19.30
2024-02-29T22:12:08.789Z,19.30
2024-02-29T22:14:37.089Z,19.30
2024-02-29T22:17:07.625Z,19.31
2024-02-29T22:19:38.308Z,19.30
2024-02-29T22:22:07.956Z,19.30
2024-02-29T22:24:36.171Z,19.30
2024-02-29T22:27:06.929Z,19.31
2024-02-29T22:29:35.160Z,19.30
2024-02-29T22:32:06.328Z,19.30
2024-02-29T22:34:34.720Z,19.31
2024-02-29T22:37:04.789Z,19.31
2024-02-29T22:39:33.120Z,19.31
2024-02-29T22:42:04.039Z,19.32
2024-02-29T22:44:33.567Z,19.32
2024-02-29T22:47:03.148Z,19.32
2024-02-29T22:49:31.415Z,19.32
2024-02-29T22:52:01.068Z,19.32
2024-02-29T22:54:29.408Z,19.32
2024-02-29T22:56:59.923Z,19.32
2024-02-29T22:59:28.455Z,19.32
2024-02-29T23:01:58.186Z,19.31
2024-02-29T23:04:26.846Z,19.32
2024-02-29T23:06:56.692Z,19.32
2024-02-29T23:09:25.033Z,19.31
2024-02-29T23:11:54.628Z,19.32
2024-02-29T23:14:22.907Z,19.31
2024-02-29T23:16:53.451Z,19.31
2024-02-29T23:19:21.742Z,19.31
2024-02-29T23:21:51.386Z,19.30
2024-02-29T23:24:19.757Z,19.30
2024-02-29T23:26:50.315Z,19.30
2024-02-29T23:29:18.664Z,19.30
2024-02-29T23:31:48.310Z,19.29
2024-02-29T23:34:16.633Z,19.29
2024-02-29T23:36:46.266Z,19.29
2024-02-29T23:39:14.639Z,19.28
2024-02-29T23:41:45.239Z,19.28
2024-02-29T23:44:13.571Z,19.27
2024-02-29T23:46:43.514Z,19.26
2024-02-29T23:49:11.802Z,19.26
2024-02-29T23:51:41.541Z,19.25
2024-02-29T23:54:10.097Z,19.25
2024-02-29T23:56:40.718Z,19.24
2024-02-29T23:59:09.051Z,19.24
